Time;durP1;ratioP1;P1;durP2;ratioP2;P2;SDS_P1;SDS_P2;PMS_P1;PMS_P2;Temp;Humidity;BMP_temperature;BMP_pressure;BME280_temperature;BME280_humidity;BME280_pressure;Samples;Min_cycle;Max_cycle;Signal;HPM_P1;HPM_P2
2021/12/08 00:01:16;;;;;;;26.00;17.77;;;;;;;-0.15;82.47;98892.63;4957307;29;20176;-82
2021/12/08 00:03:49;;;;;;;24.80;16.90;;;;;;;-0.25;82.45;98881.47;4970691;29;20224;-82
2021/12/08 00:06:19;;;;;;;25.83;17.73;;;;;;;-0.33;82.31;98892.03;4959372;23;20233;-81
2021/12/08 00:09:01;;;;;;;26.77;17.80;;;;;;;-0.37;82.95;98897.78;4930688;29;20238;-82
2021/12/08 00:14:27;;;;;;;23.80;17.10;;;;;;;-0.56;82.67;98878.72;5024019;23;20777;-82
2021/12/08 00:16:54;;;;;;;24.57;17.03;;;;;;;-0.66;82.60;98883.38;4938436;23;20241;-83
2021/12/08 00:19:27;;;;;;;26.60;17.53;;;;;;;-0.69;82.61;98888.09;4964891;28;20214;-81
2021/12/08 00:21:56;;;;;;;25.30;17.23;;;;;;;-0.77;82.97;98888.94;4953412;29;20249;-83
2021/12/08 00:24:30;;;;;;;26.00;17.53;;;;;;;-0.83;83.55;98879.09;4944406;29;20225;-83
2021/12/08 00:27:02;;;;;;;26.27;16.73;;;;;;;-0.99;83.45;98858.06;4955946;29;20582;-82
2021/12/08 00:29:33;;;;;;;25.67;17.77;;;;;;;-0.95;83.77;98869.91;4968843;28;20241;-82
2021/12/08 00:32:01;;;;;;;27.33;17.77;;;;;;;-1.03;83.59;98864.66;4953696;29;20238;-82
2021/12/08 00:34:40;;;;;;;26.97;17.47;;;;;;;-1.07;83.98;98858.03;4954181;29;20213;-82
2021/12/08 00:37:07;;;;;;;29.20;18.83;;;;;;;-1.21;83.83;98854.25;4957062;23;20253;-83
2021/12/08 00:39:41;;;;;;;32.10;20.40;;;;;;;-1.19;84.41;98869.88;4920658;29;20201;-82
2021/12/08 00:42:09;;;;;;;47.00;24.53;;;;;;;-1.30;84.44;98862.31;4949894;29;20253;-83
2021/12/08 00:44:44;;;;;;;51.47;26.87;;;;;;;-1.29;84.44;98869.22;4965809;23;20245;-82
2021/12/08 00:47:17;;;;;;;44.80;25.70;;;;;;;-1.44;84.83;98859.34;4931428;29;20234;-83
2021/12/08 00:49:51;;;;;;;44.43;24.37;;;;;;;-1.47;84.56;98878.06;4916735;29;20243;-83
2021/12/08 00:52:19;;;;;;;35.20;21.30;;;;;;;-1.50;84.61;98881.03;4913958;29;20258;-83
2021/12/08 00:54:49;;;;;;;27.90;18.50;;;;;;;-1.53;84.91;98876.06;4932814;29;20214;-82
2021/12/08 00:57:16;;;;;;;30.57;19.13;;;;;;;-1.63;85.09;98856.22;4924045;23;20233;-82
2021/12/08 00:59:45;;;;;;;28.07;17.83;;;;;;;-1.61;84.93;98864.72;4965146;28;20222;-82
2021/12/08 01:02:31;;;;;;;27.00;17.20;;;;;;;-1.54;85.28;98866.53;4932724;29;20240;-82
2021/12/08 01:05:02;;;;;;;30.13;19.37;;;;;;;-1.54;85.08;98860.50;4948752;29;20229;-81
2021/12/08 01:07:35;;;;;;;28.33;18.43;;;;;;;-1.59;85.25;98839.13;4949241;29;20252;-82
2021/12/08 01:10:10;;;;;;;29.33;18.83;;;;;;;-1.53;85.55;98854.22;4949285;29;20221;-82
2021/12/08 01:12:59;;;;;;;29.67;18.33;;;;;;;-1.65;85.79;98830.09;4948524;29;20237;-82
2021/12/08 01:15:53;;;;;;;27.70;18.07;;;;;;;-1.61;86.18;98844.53;4948984;29;20256;-81
2021/12/08 01:18:28;;;;;;;28.67;18.47;;;;;;;-1.62;86.10;98842.06;4950340;29;20248;-82
2021/12/08 01:21:07;;;;;;;27.50;18.27;;;;;;;-1.70;86.06;98821.88;4948852;29;20236;-82
2021/12/08 01:23:41;;;;;;;31.57;19.37;;;;;;;-1.66;86.37;98825.81;4948945;29;20213;-82
2021/12/08 01:26:14;;;;;;;30.20;18.63;;;;;;;-1.65;86.58;98837.97;4949279;29;20244;-81
2021/12/08 01:28:44;;;;;;;29.20;19.43;;;;;;;-1.67;86.53;98834.66;4943637;29;20645;-83
2021/12/08 01:31:16;;;;;;;28.03;18.73;;;;;;;-1.80;86.84;98802.81;4966150;28;20236;-83
2021/12/08 01:33:45;;;;;;;30.53;19.43;;;;;;;-1.76;86.70;98798.88;4950279;29;20311;-82
2021/12/08 01:36:22;;;;;;;27.60;18.07;;;;;;;-1.83;86.89;98803.16;4949483;29;20249;-83
2021/12/08 01:38:50;;;;;;;25.83;17.87;;;;;;;-1.80;86.99;98801.00;4933834;29;20237;-83
2021/12/08 01:41:18;;;;;;;26.83;18.17;;;;;;;-1.74;86.58;98798.72;4950898;28;20213;-82
2021/12/08 01:46:54;;;;;;;29.43;18.23;;;;;;;-1.93;87.06;98777.03;5020226;23;20289;-82
2021/12/08 01:49:34;;;;;;;27.80;18.27;;;;;;;-1.86;87.06;98780.63;4907644;29;20243;-82
2021/12/08 01:52:13;;;;;;;27.30;18.40;;;;;;;-1.89;87.11;98790.66;4894571;29;20243;-81
2021/12/08 01:54:42;;;;;;;31.47;18.63;;;;;;;-1.97;87.10;98774.88;4897527;29;20646;-82
2021/12/08 01:57:39;;;;;;;26.17;17.50;;;;;;;-1.92;86.69;98770.81;4953625;23;20240;-83
2021/12/08 02:00:35;;;;;;;26.13;17.43;;;;;;;-1.96;86.26;98771.28;5046122;23;20633;-82
2021/12/08 02:03:06;;;;;;;27.80;17.90;;;;;;;-2.07;86.87;98756.66;4930444;29;20237;-83
2021/12/08 02:05:39;;;;;;;29.77;18.50;;;;;;;-1.96;86.99;98740.56;4917787;23;20238;-83
2021/12/08 02:08:18;;;;;;;28.80;18.43;;;;;;;-1.99;86.61;98747.97;4917231;29;20627;-83
2021/12/08 02:10:49;;;;;;;29.10;18.07;;;;;;;-2.09;87.11;98745.47;4902949;29;20251;-82
2021/12/08 02:13:27;;;;;;;29.20;18.33;;;;;;;-2.24;87.07;98742.66;4901858;29;20251;-83
2021/12/08 02:16:37;;;;;;;28.80;18.10;;;;;;;-2.24;87.30;98747.09;4918526;29;20254;-83
2021/12/08 02:19:11;;;;;;;32.10;18.67;;;;;;;-2.23;87.22;98743.47;4917110;29;20230;-83
2021/12/08 02:21:52;;;;;;;31.43;18.97;;;;;;;-2.36;87.35;98715.09;4902092;29;20238;-83
2021/12/08 02:24:40;;;;;;;34.67;19.80;;;;;;;-2.32;87.54;98740.00;4903657;29;20214;-82
2021/12/08 02:27:36;;;;;;;29.63;17.60;;;;;;;-2.40;87.58;98732.13;4917192;29;20194;-83
2021/12/08 02:30:49;;;;;;;30.83;19.27;;;;;;;-2.43;87.54;98731.63;4919584;29;20250;-82
2021/12/08 02:48:16;;;;;;;32.10;19.70;;;;;;;-2.54;87.98;98714.38;4967434;28;20247;-82
2021/12/08 02:50:45;;;;;;;35.67;20.77;;;;;;;-2.64;87.75;98703.19;4967178;28;20217;-82
2021/12/08 02:53:15;;;;;;;35.20;21.30;;;;;;;-2.58;87.31;98701.72;4952314;29;20264;-81
2021/12/08 02:55:45;;;;;;;34.77;20.07;;;;;;;-2.63;87.56;98702.22;4937774;29;20252;-82
2021/12/08 02:58:16;;;;;;;32.67;20.57;;;;;;;-2.61;87.96;98705.47;4950422;29;20324;-82
2021/12/08 03:00:59;;;;;;;38.07;22.13;;;;;;;-2.64;88.23;98700.56;4967907;28;20621;-82
2021/12/08 03:03:34;;;;;;;36.10;20.93;;;;;;;-2.61;88.31;98697.63;4937292;29;20590;-82
2021/12/08 03:06:02;;;;;;;36.40;20.97;;;;;;;-2.71;88.31;98695.13;4934580;29;20212;-82
2021/12/08 03:08:34;;;;;;;35.70;20.77;;;;;;;-2.72;88.71;98683.00;4964854;28;20237;-82
2021/12/08 03:11:02;;;;;;;36.93;20.97;;;;;;;-2.69;88.15;98690.56;4933460;29;20232;-82
2021/12/08 03:13:42;;;;;;;40.40;21.87;;;;;;;-2.71;88.16;98695.13;4919632;28;20323;-82
2021/12/08 03:16:13;;;;;;;31.53;19.53;;;;;;;-2.79;88.33;98687.22;4951494;28;20275;-82
2021/12/08 03:19:08;;;;;;;34.33;20.43;;;;;;;-2.74;88.62;98702.47;4945051;23;20236;31
2021/12/08 03:21:49;;;;;;;36.53;21.17;;;;;;;-2.74;88.58;98697.25;4888977;29;20235;-82
2021/12/08 03:24:30;;;;;;;37.53;21.47;;;;;;;-2.82;88.59;98687.56;4943844;29;20312;-82
2021/12/08 03:27:10;;;;;;;39.20;21.77;;;;;;;-2.82;88.58;98692.81;4952873;23;20270;-82
2021/12/08 03:32:38;;;;;;;40.77;22.37;;;;;;;-2.81;88.60;98691.00;4950165;23;20252;-82
2021/12/08 03:35:11;;;;;;;36.33;20.83;;;;;;;-2.84;88.39;98691.28;4949357;28;20233;-82
2021/12/08 03:37:45;;;;;;;33.17;20.03;;;;;;;-2.89;88.51;98691.78;4950174;28;20232;-82
2021/12/08 03:40:24;;;;;;;37.03;21.60;;;;;;;-2.94;88.32;98674.91;4933194;29;20224;-82
2021/12/08 03:42:56;;;;;;;31.30;19.37;;;;;;;-2.91;88.86;98674.56;4933312;29;20239;-82
2021/12/08 03:45:35;;;;;;;34.63;20.50;;;;;;;-2.95;88.41;98662.75;4931620;29;20243;-82
2021/12/08 03:48:43;;;;;;;34.10;20.00;;;;;;;-3.06;87.98;98669.09;4973874;23;20645;-82
2021/12/08 03:51:24;;;;;;;32.87;19.50;;;;;;;-3.18;88.25;98665.13;4987429;23;20307;-82
2021/12/08 03:53:51;;;;;;;35.27;20.53;;;;;;;-3.27;88.13;98656.41;4971278;23;20233;-82
2021/12/08 03:56:23;;;;;;;35.07;20.93;;;;;;;-3.21;88.34;98668.84;4950609;23;20249;-83
2021/12/08 03:58:50;;;;;;;31.23;20.10;;;;;;;-3.27;87.94;98672.13;4943525;29;20236;-82
2021/12/08 04:01:20;;;;;;;33.80;19.87;;;;;;;-3.28;88.11;98677.50;4950111;23;20233;-82
2021/12/08 04:04:01;;;;;;;34.93;20.27;;;;;;;-3.34;87.98;98667.63;4997276;23;20243;-82
2021/12/08 04:06:34;;;;;;;33.13;18.80;;;;;;;-3.35;87.83;98666.81;4922772;23;20622;-82
2021/12/08 04:09:27;;;;;;;33.37;19.37;;;;;;;-3.36;87.67;98665.16;5061767;23;21072;-82
2021/12/08 04:12:07;;;;;;;33.57;19.37;;;;;;;-3.40;87.46;98663.00;4962873;29;20220;-83
2021/12/08 04:14:51;;;;;;;35.57;19.73;;;;;;;-3.45;87.59;98657.44;4965547;23;20233;-82
2021/12/08 04:17:35;;;;;;;31.33;18.53;;;;;;;-3.47;88.05;98649.72;4974707;29;20172;-84
2021/12/08 04:20:28;;;;;;;35.73;19.57;;;;;;;-3.46;87.80;98643.53;4942663;29;20244;-86
2021/12/08 04:22:58;;;;;;;37.40;20.23;;;;;;;-3.45;87.68;98647.75;4956842;29;20228;-82
2021/12/08 04:25:33;;;;;;;33.47;19.10;;;;;;;-3.53;87.96;98634.63;4940753;29;20237;-91
2021/12/08 04:28:04;;;;;;;34.13;19.53;;;;;;;-3.52;88.00;98638.06;4924540;29;20240;-83
2021/12/08 04:30:42;;;;;;;37.90;20.47;;;;;;;-3.58;87.82;98626.41;4938653;29;20233;-86
2021/12/08 04:33:11;;;;;;;34.37;19.40;;;;;;;-3.53;87.84;98649.50;4957757;29;20213;-87
2021/12/08 04:35:48;;;;;;;37.20;20.60;;;;;;;-3.61;87.97;98635.41;4957569;29;20237;-87
2021/12/08 04:38:23;;;;;;;32.87;20.07;;;;;;;-3.56;87.66;98643.63;4973149;28;20629;-81
2021/12/08 04:43:40;;;;;;;34.80;19.57;;;;;;;-3.64;87.77;98646.16;4953574;29;20224;-92
2021/12/08 04:46:18;;;;;;;34.40;19.60;;;;;;;-3.74;87.73;98632.38;4949589;29;20628;-93
2021/12/08 05:07:44;;;;;;;44.47;21.23;;;;;;;-2.83;89.15;98567.13;4924893;29;20237;-94
2021/12/08 05:10:16;;;;;;;35.87;21.30;;;;;;;-2.70;88.84;98591.88;4926625;28;20237;-95
2021/12/08 05:12:47;;;;;;;38.60;21.60;;;;;;;-2.62;89.18;98582.41;4911666;29;20253;-95
2021/12/08 05:15:24;;;;;;;37.00;22.40;;;;;;;-2.57;88.45;98572.25;4924574;29;20275;-85
2021/12/08 05:17:57;;;;;;;39.63;21.53;;;;;;;-2.48;88.84;98574.72;4928057;29;20237;-86
2021/12/08 05:20:31;;;;;;;36.20;21.97;;;;;;;-2.32;88.87;98587.03;4926325;29;20622;-87
2021/12/08 05:23:07;;;;;;;38.97;21.93;;;;;;;-2.39;nan;98568.50;4944547;29;20292;-91
2021/12/08 05:25:43;;;;;;;37.73;22.47;;;;;;;-2.22;88.81;98571.94;4950832;29;20229;-86
2021/12/08 05:28:13;;;;;;;34.93;21.53;;;;;;;-2.17;88.75;98567.03;4935675;29;20213;-90
2021/12/08 05:31:04;;;;;;;34.17;21.30;;;;;;;-2.06;89.19;98565.88;4919739;29;20248;-82
2021/12/08 05:33:33;;;;;;;35.73;21.53;;;;;;;-2.10;88.89;98556.69;4953233;29;20201;-83
2021/12/08 05:36:05;;;;;;;34.80;22.03;;;;;;;-2.02;88.93;98559.31;4953262;29;20199;-84
2021/12/08 05:38:33;;;;;;;32.57;21.60;;;;;;;-1.94;88.67;98560.13;4918539;29;20229;-82
2021/12/08 05:41:15;;;;;;;36.27;21.53;;;;;;;-2.05;88.71;98551.78;4936179;29;20233;-82
2021/12/08 05:43:43;;;;;;;37.40;22.50;;;;;;;-2.01;88.80;98553.06;4953275;29;20198;-83
2021/12/08 05:46:12;;;;;;;34.03;21.97;;;;;;;-2.00;88.72;98557.31;4953607;29;20256;-83
2021/12/08 05:48:42;;;;;;;36.27;21.93;;;;;;;-1.94;88.74;98535.66;4952445;29;20218;-83
2021/12/08 05:51:13;;;;;;;31.20;19.73;;;;;;;-1.77;88.52;98539.09;4951892;29;20237;-83
2021/12/08 05:53:45;;;;;;;32.77;20.37;;;;;;;-1.85;88.07;98543.34;4950162;29;20229;-83
2021/12/08 05:56:15;;;;;;;31.13;20.17;;;;;;;-1.86;87.95;98546.13;4953882;28;20232;-81
2021/12/08 05:58:45;;;;;;;28.93;19.53;;;;;;;-1.75;88.20;98540.53;4937897;29;20233;-83
2021/12/08 06:01:17;;;;;;;30.67;19.87;;;;;;;-1.75;87.96;98532.66;4953400;29;20220;-84
2021/12/08 06:03:47;;;;;;;30.20;20.20;;;;;;;-1.87;87.86;98539.28;4953582;29;20237;-83
2021/12/08 06:06:21;;;;;;;32.13;20.37;;;;;;;-1.87;87.75;98540.06;4954630;29;20213;-81
2021/12/08 06:08:52;;;;;;;30.63;19.67;;;;;;;-2.00;87.88;98515.31;4954562;29;20237;-82
2021/12/08 06:11:40;;;;;;;29.47;18.63;;;;;;;-1.90;87.42;98537.78;4936213;29;20225;-84
2021/12/08 06:14:11;;;;;;;35.17;20.37;;;;;;;-2.09;88.05;98516.31;4953167;29;20245;-83
2021/12/08 06:16:44;;;;;;;32.37;20.23;;;;;;;-2.05;87.78;98528.16;4958869;23;20240;-82
2021/12/08 06:19:19;;;;;;;29.63;19.00;;;;;;;-2.03;87.93;98521.75;4963598;23;21208;-83
2021/12/08 06:22:05;;;;;;;29.73;19.27;;;;;;;-2.01;88.00;98524.22;4957906;28;20213;-82
2021/12/08 06:24:32;;;;;;;29.50;19.10;;;;;;;-2.05;87.90;98504.53;4939962;29;20657;-82
2021/12/08 06:27:10;;;;;;;28.80;18.70;;;;;;;-1.98;87.78;98527.31;4946355;23;20249;-83
2021/12/08 06:29:38;;;;;;;28.33;18.53;;;;;;;-1.94;87.72;98491.84;4970354;29;20202;-84
2021/12/08 06:32:08;;;;;;;27.00;18.20;;;;;;;-1.83;87.16;98507.25;4937277;28;20236;-86
2021/12/08 06:34:39;;;;;;;28.30;17.97;;;;;;;-1.81;87.14;98510.53;4950250;28;20237;-85
2021/12/08 06:37:12;;;;;;;27.83;18.23;;;;;;;-1.72;86.88;98513.94;4937561;29;20241;-85
2021/12/08 06:39:45;;;;;;;25.50;17.53;;;;;;;-1.72;86.57;98506.06;4918514;29;20641;-88
2021/12/08 06:42:17;;;;;;;26.57;17.73;;;;;;;-1.73;86.66;98496.56;4919763;28;20223;-87
2021/12/08 06:44:48;;;;;;;25.70;18.10;;;;;;;-1.73;86.56;98488.69;4935674;29;20256;-88
2021/12/08 06:47:20;;;;;;;25.20;17.67;;;;;;;-1.65;86.67;98500.97;4936274;29;20217;-85
2021/12/08 06:49:49;;;;;;;25.83;17.33;;;;;;;-1.55;86.12;98498.97;4919733;29;20229;-85
2021/12/08 06:52:19;;;;;;;23.50;16.47;;;;;;;-1.75;86.05;98461.78;4932410;28;20241;-93
2021/12/08 06:54:58;;;;;;;22.87;16.20;;;;;;;-1.55;85.57;98486.66;4953783;28;20205;-84
2021/12/08 06:57:39;;;;;;;24.83;17.23;;;;;;;-1.58;85.27;98478.28;4937630;29;20229;-93
2021/12/08 07:00:47;;;;;;;22.77;16.53;;;;;;;-1.44;85.73;98482.81;4952805;28;20232;-85
2021/12/08 07:06:05;;;;;;;26.77;16.73;;;;;;;-1.35;84.94;98481.78;4938255;29;20649;-84
2021/12/08 07:08:44;;;;;;;21.97;15.30;;;;;;;-1.24;84.76;98477.94;4960238;23;20221;-82
2021/12/08 07:11:13;;;;;;;23.47;16.13;;;;;;;-1.18;84.24;98472.00;4938975;29;20225;-83
2021/12/08 07:13:45;;;;;;;22.37;16.03;;;;;;;-1.07;83.98;98471.59;4954170;29;20217;-86
2021/12/08 07:16:31;;;;;;;22.60;15.77;;;;;;;-1.03;83.75;98468.47;4947953;29;20253;-82
2021/12/08 07:19:46;;;;;;;22.67;15.83;;;;;;;-0.96;83.55;98469.41;4948895;28;20229;-84
2021/12/08 07:22:24;;;;;;;21.13;15.83;;;;;;;-0.96;82.79;98471.22;4962094;28;20221;-83
2021/12/08 07:25:02;;;;;;;23.33;15.40;;;;;;;-0.96;83.30;98465.97;4955389;23;20244;-82
2021/12/08 07:27:34;;;;;;;21.67;15.17;;;;;;;-0.84;83.05;98466.38;4958799;23;20221;-83
2021/12/08 07:30:13;;;;;;;21.80;14.57;;;;;;;-0.79;82.51;98466.69;4953818;29;20265;-82
2021/12/08 07:32:43;;;;;;;20.73;15.10;;;;;;;-0.74;81.83;98451.16;4961347;28;20228;-83
2021/12/08 07:35:26;;;;;;;21.40;14.93;;;;;;;-0.70;81.53;98455.88;4958837;28;20225;-84
2021/12/08 07:37:58;;;;;;;19.40;14.10;;;;;;;-0.60;81.53;98456.47;4963979;23;20233;-83
2021/12/08 07:40:51;;;;;;;20.07;14.47;;;;;;;-0.64;81.59;98446.47;4942134;28;20237;-83
2021/12/08 07:43:23;;;;;;;21.10;14.27;;;;;;;-0.51;80.97;98451.94;4957418;29;20205;-82
2021/12/08 07:46:03;;;;;;;19.23;14.53;;;;;;;-0.52;80.65;98451.16;4976841;23;20243;-83
2021/12/08 07:48:56;;;;;;;18.60;13.57;;;;;;;-0.41;80.21;98446.44;4976365;28;20290;-83
2021/12/08 07:52:04;;;;;;;20.37;14.23;;;;;;;-0.37;80.02;98453.00;4930028;29;20233;-85
2021/12/08 07:54:35;;;;;;;20.10;13.33;;;;;;;-0.54;79.91;98415.47;4958621;29;20236;-83
2021/12/08 07:57:15;;;;;;;19.40;13.10;;;;;;;-0.40;80.23;98445.44;4961477;28;20193;-83
2021/12/08 07:59:46;;;;;;;18.53;14.03;;;;;;;-0.39;79.82;98437.38;4978224;29;20229;-83
2021/12/08 08:02:14;;;;;;;17.83;13.40;;;;;;;-0.30;79.78;98438.94;4966610;28;20233;-82
2021/12/08 08:05:07;;;;;;;19.67;13.17;;;;;;;-0.23;79.54;98431.13;4965262;28;20184;-83
2021/12/08 08:07:43;;;;;;;18.07;12.90;;;;;;;-0.20;78.90;98434.25;4977099;28;20255;-82
2021/12/08 08:10:28;;;;;;;18.80;13.13;;;;;;;-0.17;78.88;98427.78;4991627;23;20244;-83
2021/12/08 08:13:30;;;;;;;17.77;12.53;;;;;;;-0.09;78.98;98432.97;4979579;29;20237;-83
2021/12/08 08:16:13;;;;;;;17.07;12.43;;;;;;;-0.12;78.64;98423.63;4979507;29;20209;-83
2021/12/08 08:18:50;;;;;;;17.30;12.37;;;;;;;-0.02;78.57;98428.63;4947985;29;20169;-84
2021/12/08 08:21:32;;;;;;;16.27;12.63;;;;;;;0.10;77.90;98421.06;4964291;28;20480;-83
2021/12/08 08:24:22;;;;;;;17.50;12.20;;;;;;;0.10;77.57;98413.97;4978776;28;20236;-84
2021/12/08 08:26:57;;;;;;;16.03;12.33;;;;;;;0.30;77.71;98422.16;4963191;28;20253;-83
2021/12/08 08:29:47;;;;;;;15.70;11.67;;;;;;;0.31;76.62;98424.59;4985968;23;20288;-83
2021/12/08 08:32:26;;;;;;;17.73;12.50;;;;;;;0.35;76.65;98399.53;4978955;29;20240;-83
2021/12/08 08:35:19;;;;;;;16.20;13.50;;;;;;;0.39;76.77;98410.50;4973570;23;20224;-84
2021/12/08 08:37:54;;;;;;;16.97;13.40;;;;;;;0.29;76.73;98392.34;4991606;23;20276;-83
2021/12/08 08:40:57;;;;;;;15.10;12.23;;;;;;;0.54;76.02;98415.75;4971265;28;20220;-83
2021/12/08 08:43:27;;;;;;;16.63;12.93;;;;;;;0.51;76.35;98405.59;4979416;23;20220;-83
2021/12/08 08:46:24;;;;;;;17.40;12.23;;;;;;;0.51;76.42;98395.88;4971120;28;20248;-82
2021/12/08 08:49:01;;;;;;;17.47;12.80;;;;;;;0.62;76.28;98410.34;4972111;23;20201;-82
2021/12/08 08:52:42;;;;;;;18.27;13.20;;;;;;;0.65;76.39;98397.66;5054598;23;20252;-83
2021/12/08 08:56:18;;;;;;;18.17;14.33;;;;;;;0.67;75.91;98385.09;4979505;28;20228;-83
2021/12/08 08:58:57;;;;;;;15.90;12.67;;;;;;;0.68;76.11;98381.44;4912583;23;20219;-83
2021/12/08 09:01:53;;;;;;;16.67;12.87;;;;;;;0.72;75.46;98369.53;4943661;23;20294;-83
2021/12/08 09:04:44;;;;;;;15.83;12.20;;;;;;;0.87;75.45;98372.94;4962928;23;20223;-85
2021/12/08 09:10:51;;;;;;;13.43;11.10;;;;;;;1.01;73.62;98367.78;4928498;23;20243;-82
2021/12/08 09:14:16;;;;;;;12.70;10.80;;;;;;;1.03;73.78;98352.56;4943124;29;20194;-83
2021/12/08 09:17:37;;;;;;;13.57;10.63;;;;;;;1.18;74.04;98351.47;4920787;29;20257;-84
2021/12/08 09:20:54;;;;;;;13.53;10.93;;;;;;;1.28;73.38;98343.22;4930718;23;20230;-82
2021/12/08 09:23:43;;;;;;;14.37;10.80;;;;;;;1.17;73.33;98312.91;4936875;23;20249;-81
2021/12/08 09:26:34;;;;;;;13.27;10.20;;;;;;;1.46;72.50;98325.09;4971771;23;20219;-82
2021/12/08 09:29:43;;;;;;;12.30;10.13;;;;;;;1.52;72.44;98329.59;4962820;29;20173;-84
2021/12/08 09:32:26;;;;;;;12.37;10.33;;;;;;;1.67;71.97;98329.50;4981284;23;20232;-82
2021/12/08 09:36:09;;;;;;;13.37;10.43;;;;;;;1.79;70.69;98322.66;4984923;23;20232;-82
2021/12/08 09:38:58;;;;;;;12.33;9.63;;;;;;;1.83;70.70;98336.25;5020966;23;20253;-81
2021/12/08 09:42:42;;;;;;;12.50;9.33;;;;;;;2.01;70.75;98326.00;4891472;29;20228;-81
2021/12/08 09:45:37;;;;;;;10.67;9.57;;;;;;;2.10;69.84;98316.91;4923935;23;20225;-82
2021/12/08 09:48:07;;;;;;;10.93;8.73;;;;;;;2.14;69.10;98312.88;4940156;23;20240;-82
2021/12/08 09:50:51;;;;;;;10.77;9.20;;;;;;;2.26;69.45;98305.97;4913091;23;20238;-81
2021/12/08 09:53:34;;;;;;;10.93;8.80;;;;;;;2.34;69.29;98308.44;4942147;23;20246;-82
2021/12/08 09:56:40;;;;;;;10.83;8.37;;;;;;;2.48;68.71;98296.88;4939535;29;20236;-83
2021/12/08 09:59:28;;;;;;;12.90;9.00;;;;;;;2.55;67.66;98296.91;4953222;29;20198;-83
2021/12/08 10:02:09;;;;;;;12.67;9.10;;;;;;;2.57;68.01;98292.22;4954022;23;20299;-83
2021/12/08 10:04:37;;;;;;;11.50;9.17;;;;;;;2.57;67.86;98281.63;4919455;29;20229;-82
2021/12/08 10:07:07;;;;;;;13.63;9.70;;;;;;;2.65;68.20;98273.53;4900974;29;20230;-83
2021/12/08 10:09:34;;;;;;;11.57;9.30;;;;;;;2.61;67.41;98257.22;4898425;29;20237;-82
2021/12/08 10:12:05;;;;;;;10.60;8.70;;;;;;;2.63;67.15;98271.09;4899043;29;20226;-82
2021/12/08 10:14:34;;;;;;;12.00;9.67;;;;;;;2.71;67.29;98246.25;4912761;29;20238;-82
2021/12/08 10:17:02;;;;;;;9.77;8.73;;;;;;;2.75;66.90;98251.97;4915220;29;20236;-82
2021/12/08 10:19:31;;;;;;;12.70;8.93;;;;;;;2.68;66.94;98236.09;4914113;29;20229;-82
2021/12/08 10:22:00;;;;;;;9.50;7.90;;;;;;;2.87;66.83;98251.16;4914699;29;20236;-82
2021/12/08 10:24:30;;;;;;;11.00;8.30;;;;;;;3.00;66.73;98250.34;4931553;29;20230;-83
2021/12/08 10:27:06;;;;;;;9.90;8.13;;;;;;;2.93;66.95;98215.97;4912469;29;20234;-83
2021/12/08 10:29:33;;;;;;;9.50;8.50;;;;;;;3.14;66.09;98244.00;4920567;23;20234;-82
2021/12/08 10:32:02;;;;;;;9.57;8.43;;;;;;;3.21;65.67;98238.72;4945067;23;20241;-82
2021/12/08 10:34:46;;;;;;;11.97;8.23;;;;;;;3.24;65.21;98225.88;4929395;29;20277;-82
2021/12/08 10:37:18;;;;;;;10.07;8.13;;;;;;;3.40;64.76;98230.75;4945727;29;20237;-82
2021/12/08 10:39:48;;;;;;;13.47;8.87;;;;;;;3.50;64.05;98227.63;4918642;29;20252;-82
2021/12/08 10:42:20;;;;;;;9.83;8.33;;;;;;;3.64;64.41;98228.44;4911215;29;20233;-83
2021/12/08 10:45:13;;;;;;;9.63;7.90;;;;;;;3.67;63.35;98206.81;4954932;28;20255;-82
2021/12/08 10:47:51;;;;;;;9.17;6.70;;;;;;;3.71;63.10;98210.66;4972900;28;20268;-83
2021/12/08 10:56:14;;;;;;;11.60;8.37;;;;;;;3.89;62.20;98198.34;4964130;23;20284;-83
2021/12/08 10:58:53;;;;;;;8.97;7.10;;;;;;;3.68;61.49;98163.41;4975069;23;20237;-83
2021/12/08 11:01:25;;;;;;;7.37;6.20;;;;;;;3.91;61.46;98203.44;5050264;23;20308;-82
2021/12/08 11:04:12;;;;;;;8.07;6.37;;;;;;;4.04;60.83;98192.78;4970054;23;20172;-84
2021/12/08 11:06:48;;;;;;;9.43;5.87;;;;;;;4.02;60.09;98180.75;4958925;23;20233;-83
2021/12/08 11:09:51;;;;;;;10.87;7.43;;;;;;;4.06;60.66;98152.81;4958025;23;20236;-83
2021/12/08 11:12:43;;;;;;;9.90;6.87;;;;;;;4.11;59.91;98159.09;4967401;28;20237;-83
2021/12/08 11:15:24;;;;;;;11.27;7.57;;;;;;;4.32;59.97;98187.91;4968672;23;20243;-83
2021/12/08 11:18:13;;;;;;;8.27;6.23;;;;;;;4.44;59.19;98185.38;4960425;29;20216;-83
2021/12/08 11:21:16;;;;;;;13.50;10.30;;;;;;;4.18;58.73;98173.13;4983390;23;20284;-83
2021/12/08 11:24:34;;;;;;;9.00;7.50;;;;;;;4.38;58.65;98195.03;4918698;29;20238;-83
2021/12/08 11:27:38;;;;;;;8.67;7.27;;;;;;;4.35;58.56;98197.25;4917223;23;20293;-83
2021/12/08 11:30:22;;;;;;;13.10;11.00;;;;;;;4.23;58.71;98183.09;4955527;29;20265;-83
2021/12/08 11:33:16;;;;;;;9.10;7.53;;;;;;;4.24;59.25;98182.88;4948047;29;20233;-84
2021/12/08 11:36:05;;;;;;;7.37;6.00;;;;;;;4.13;58.91;98146.44;4964392;23;20236;-84
2021/12/08 11:38:38;;;;;;;7.00;5.80;;;;;;;4.26;58.82;98178.16;4965332;28;20241;-84
2021/12/08 11:41:54;;;;;;;6.47;5.43;;;;;;;4.30;58.41;98175.88;4957110;29;20233;-84
2021/12/08 11:44:28;;;;;;;6.43;5.20;;;;;;;4.34;57.71;98158.50;4948757;23;20229;-84
2021/12/08 11:47:06;;;;;;;6.00;5.13;;;;;;;4.45;57.32;98168.44;4982775;23;20236;-84
2021/12/08 11:50:01;;;;;;;5.97;5.20;;;;;;;4.53;57.03;98141.63;4991696;23;20232;-83
2021/12/08 11:52:36;;;;;;;7.27;5.77;;;;;;;4.94;56.66;98186.19;4956260;29;20237;-83
2021/12/08 11:55:19;;;;;;;7.50;6.60;;;;;;;4.94;56.54;98161.50;4957370;29;20240;-84
2021/12/08 11:57:54;;;;;;;7.30;5.90;;;;;;;5.04;55.48;98151.97;4957550;29;20209;-84
2021/12/08 12:00:41;;;;;;;8.57;6.60;;;;;;;5.19;55.45;98159.59;4965132;23;20258;-82
2021/12/08 12:03:26;;;;;;;7.10;6.40;;;;;;;5.32;55.28;98160.25;4972275;23;20228;-84
2021/12/08 12:06:28;;;;;;;7.47;5.93;;;;;;;5.35;54.84;98163.50;4975400;28;20236;-83
2021/12/08 12:09:02;;;;;;;6.47;5.50;;;;;;;5.26;54.06;98139.09;4976514;28;20229;-84
2021/12/08 12:11:53;;;;;;;8.43;6.27;;;;;;;5.40;54.22;98150.38;4983214;23;20235;-84
2021/12/08 12:14:44;;;;;;;7.03;5.70;;;;;;;5.20;54.27;98126.69;4959123;23;20220;-83
2021/12/08 12:17:15;;;;;;;6.50;5.33;;;;;;;5.42;54.57;98164.22;5060473;23;20734;-83
2021/12/08 12:20:25;;;;;;;7.00;5.83;;;;;;;5.40;55.46;98169.78;4955912;28;20178;-83
2021/12/08 12:23:44;;;;;;;6.77;5.10;;;;;;;5.21;54.71;98155.69;5048493;23;20229;-84
2021/12/08 12:26:40;;;;;;;6.40;4.97;;;;;;;5.21;55.00;98155.69;4979043;28;20212;-84
2021/12/08 12:29:36;;;;;;;6.23;5.10;;;;;;;5.18;54.64;98158.78;4981780;28;20224;-84
2021/12/08 12:32:48;;;;;;;7.53;5.37;;;;;;;5.07;55.47;98153.41;4980299;28;20236;-84
2021/12/08 12:35:27;;;;;;;5.57;4.97;;;;;;;5.09;54.95;98144.16;4987942;23;20240;-84
2021/12/08 12:38:04;;;;;;;7.23;6.10;;;;;;;5.19;55.36;98146.31;5036932;23;20191;-83
2021/12/08 12:41:14;;;;;;;8.40;7.53;;;;;;;5.13;53.67;98140.03;5084968;23;20289;-84
2021/12/08 12:44:24;;;;;;;7.33;6.43;;;;;;;5.31;52.72;98158.66;4981671;28;20228;-83
2021/12/08 12:47:14;;;;;;;15.03;13.00;;;;;;;5.38;53.15;98152.44;4946501;29;20264;-84
2021/12/08 12:50:27;;;;;;;6.00;4.90;;;;;;;5.17;52.45;98143.91;4981254;28;20217;-83
2021/12/08 12:53:31;;;;;;;6.30;5.20;;;;;;;5.11;52.80;98117.41;4981220;28;20458;-83
2021/12/08 12:57:00;;;;;;;5.37;4.60;;;;;;;5.06;53.57;98117.25;4979702;28;20208;-84
2021/12/08 13:00:06;;;;;;;7.77;5.63;;;;;;;5.09;54.11;98149.47;4968784;23;20593;-83
2021/12/08 13:02:57;;;;;;;6.37;5.30;;;;;;;4.87;54.89;98135.00;5056106;23;20295;-83
2021/12/08 13:06:08;;;;;;;8.37;5.83;;;;;;;4.86;55.25;98146.66;4977703;23;20272;-83
2021/12/08 13:15:08;;;;;;;7.03;5.47;;;;;;;4.81;56.51;98139.34;4941395;29;20262;-83
2021/12/08 13:22:08;;;;;;;7.57;5.87;;;;;;;4.80;57.02;98123.66;4873669;29;20254;-83
2021/12/08 13:25:07;;;;;;;7.93;6.57;;;;;;;4.60;57.02;98120.38;4970256;23;20245;-83
2021/12/08 13:28:31;;;;;;;8.10;6.17;;;;;;;4.55;57.57;98134.28;4969859;23;20233;-84
2021/12/08 13:31:39;;;;;;;8.23;5.93;;;;;;;4.40;58.94;98131.97;4963176;23;20212;-82
2021/12/08 13:37:33;;;;;;;9.67;6.80;;;;;;;4.18;59.36;98103.38;4919911;29;20215;-83
2021/12/08 13:40:15;;;;;;;9.10;7.17;;;;;;;4.27;59.68;98131.25;4969185;23;20312;-83
2021/12/08 13:42:54;;;;;;;7.97;6.50;;;;;;;4.30;59.08;98114.91;4975386;23;20560;-83